createdAt,value
2023-03-17T00:00:16.568Z,77.08
2023-03-17T00:02:45.765Z,77.15
2023-03-17T00:05:25.662Z,77.46
2023-03-17T00:07:52.831Z,77.75
2023-03-17T00:10:22.222Z,77.58
2023-03-17T00:12:50.264Z,77.47
2023-03-17T00:15:17.783Z,77.06
2023-03-17T00:17:45.031Z,76.65
2023-03-17T00:20:14.663Z,76.90
2023-03-17T00:22:41.141Z,76.75
2023-03-17T00:25:18.927Z,76.93
2023-03-17T00:27:45.423Z,76.77
2023-03-17T00:30:12.270Z,77.30
2023-03-17T00:32:39.659Z,76.98
2023-03-17T00:35:15.002Z,77.68
2023-03-17T00:37:41.964Z,77.00
2023-03-17T00:40:20.312Z,76.89
2023-03-17T00:42:47.002Z,76.62
2023-03-17T00:45:13.533Z,77.09
2023-03-17T00:47:40.441Z,76.78
2023-03-17T00:50:10.116Z,76.96
2023-03-17T00:52:36.587Z,76.67
2023-03-17T00:55:03.482Z,76.52
2023-03-17T00:57:30.292Z,76.77
2023-03-17T00:59:56.826Z,76.67
2023-03-17T01:02:24.256Z,76.90
2023-03-17T01:04:59.820Z,77.16
2023-03-17T01:07:30.446Z,77.16
2023-03-17T01:09:57.070Z,77.61
2023-03-17T01:12:23.628Z,77.39
2023-03-17T01:14:50.076Z,77.20
2023-03-17T01:17:18.167Z,77.37
2023-03-17T01:19:46.085Z,77.26
2023-03-17T01:22:13.492Z,76.92
2023-03-17T01:24:40.547Z,77.21
2023-03-17T01:27:07.158Z,77.17
2023-03-17T01:29:34.778Z,76.88
2023-03-17T01:32:01.258Z,76.96
2023-03-17T01:34:28.134Z,76.64
2023-03-17T01:36:54.735Z,77.03
2023-03-17T01:39:21.212Z,77.10
2023-03-17T01:41:47.672Z,77.34
2023-03-17T01:44:18.522Z,76.68
2023-03-17T01:46:46.040Z,76.74
2023-03-17T01:49:15.974Z,76.84
2023-03-17T01:52:10.334Z,76.82
2023-03-17T01:54:46.360Z,75.95
2023-03-17T01:57:26.960Z,75.81
2023-03-17T02:00:01.590Z,75.61
2023-03-17T02:02:30.850Z,75.61
2023-03-17T02:04:57.907Z,74.88
2023-03-17T02:07:26.493Z,75.13
2023-03-17T02:09:53.598Z,75.76
2023-03-17T02:12:21.210Z,76.00
2023-03-17T02:14:47.688Z,76.31
2023-03-17T02:17:14.666Z,76.57
2023-03-17T02:19:41.949Z,77.25
2023-03-17T02:22:08.677Z,77.24
2023-03-17T02:24:37.772Z,76.81
2023-03-17T02:27:24.672Z,76.91
2023-03-17T02:29:52.062Z,76.66
2023-03-17T02:32:18.713Z,75.90
2023-03-17T02:34:48.187Z,76.39
2023-03-17T02:37:15.937Z,75.93
2023-03-17T02:39:42.590Z,75.58
2023-03-17T02:42:09.380Z,75.91
2023-03-17T02:47:17.204Z,75.83
2023-03-17T02:49:43.674Z,76.12
2023-03-17T02:52:10.128Z,75.84
2023-03-17T02:54:36.714Z,75.41
2023-03-17T02:57:03.198Z,76.12
2023-03-17T02:59:29.776Z,75.61
2023-03-17T03:01:56.267Z,75.57
2023-03-17T03:04:22.787Z,75.94
2023-03-17T03:06:49.242Z,76.25
2023-03-17T03:09:17.708Z,76.26
2023-03-17T03:11:44.227Z,75.82
2023-03-17T03:14:11.059Z,76.30
2023-03-17T03:16:37.950Z,76.92
2023-03-17T03:19:04.622Z,77.27
2023-03-17T03:21:31.652Z,76.82
2023-03-17T03:23:58.446Z,76.99
2023-03-17T03:26:24.954Z,77.42
2023-03-17T03:28:51.940Z,77.24
2023-03-17T03:31:18.443Z,77.27
2023-03-17T03:33:44.969Z,77.35
2023-03-17T03:36:11.561Z,77.04
2023-03-17T03:38:38.155Z,77.24
2023-03-17T03:41:04.690Z,76.82
2023-03-17T03:43:31.238Z,77.29
2023-03-17T03:45:57.748Z,77.63
2023-03-17T03:48:24.482Z,78.17
2023-03-17T03:50:50.988Z,77.75
2023-03-17T03:53:17.866Z,78.09
2023-03-17T03:55:44.352Z,77.56
2023-03-17T03:58:11.324Z,77.78
2023-03-17T04:00:38.514Z,77.18
2023-03-17T04:03:05.209Z,77.78
2023-03-17T04:05:31.788Z,77.84
2023-03-17T04:07:58.238Z,78.09
2023-03-17T04:10:24.762Z,78.57
2023-03-17T04:12:51.318Z,78.63
2023-03-17T04:15:18.399Z,78.96
2023-03-17T04:17:44.881Z,78.33
2023-03-17T04:20:11.786Z,78.67
2023-03-17T04:22:38.240Z,78.44
2023-03-17T04:25:05.492Z,78.55
2023-03-17T04:27:32.257Z,78.31
2023-03-17T04:29:58.741Z,78.70
2023-03-17T04:32:27.211Z,78.21
2023-03-17T04:34:53.839Z,77.86
2023-03-17T04:37:20.502Z,77.84
2023-03-17T04:39:47.358Z,78.24
2023-03-17T04:42:13.914Z,77.56
2023-03-17T04:44:41.050Z,77.70
2023-03-17T04:47:07.686Z,77.85
2023-03-17T04:49:34.512Z,78.16
2023-03-17T04:52:01.389Z,78.13
2023-03-17T04:54:27.862Z,78.33
2023-03-17T04:56:54.344Z,77.97
2023-03-17T04:59:21.040Z,77.86
2023-03-17T05:01:47.759Z,77.66
2023-03-17T05:04:22.124Z,77.13
2023-03-17T05:06:58.197Z,77.41
2023-03-17T05:09:25.257Z,77.21
2023-03-17T05:11:52.110Z,77.26
2023-03-17T05:14:18.590Z,77.53
2023-03-17T05:16:49.932Z,76.63
2023-03-17T05:19:17.376Z,76.42
2023-03-17T05:21:44.071Z,76.11
2023-03-17T05:24:10.631Z,76.77
2023-03-17T05:26:37.141Z,76.93
2023-03-17T05:29:03.661Z,76.19
2023-03-17T05:31:30.986Z,76.81
2023-03-17T05:33:57.903Z,77.13
2023-03-17T05:36:24.629Z,76.82
2023-03-17T05:38:51.125Z,76.83
2023-03-17T05:41:17.779Z,77.34
2023-03-17T05:43:44.254Z,76.93
2023-03-17T05:46:11.143Z,77.35
2023-03-17T05:48:37.646Z,76.99
2023-03-17T05:51:04.803Z,76.99
2023-03-17T05:53:31.310Z,77.19
2023-03-17T05:55:57.800Z,76.98
2023-03-17T05:58:24.263Z,77.24
2023-03-17T06:00:51.081Z,77.39
2023-03-17T06:03:17.575Z,77.15
2023-03-17T06:05:44.121Z,76.83
2023-03-17T06:08:10.619Z,76.90
2023-03-17T06:10:37.084Z,77.01
2023-03-17T06:13:04.452Z,77.22
2023-03-17T06:15:31.292Z,76.37
2023-03-17T06:17:57.872Z,76.05
2023-03-17T06:20:24.328Z,75.58
2023-03-17T06:23:03.404Z,75.48
2023-03-17T06:25:30.968Z,75.21
2023-03-17T06:27:57.761Z,74.96
2023-03-17T06:30:24.260Z,74.39
2023-03-17T06:32:50.756Z,74.54
2023-03-17T06:35:17.956Z,74.22
2023-03-17T06:37:44.516Z,74.27
2023-03-17T06:40:12.514Z,74.06
2023-03-17T06:42:38.980Z,74.34
2023-03-17T06:45:05.876Z,74.07
2023-03-17T06:47:32.363Z,73.64
2023-03-17T06:49:58.837Z,73.72
2023-03-17T06:52:25.316Z,73.92
2023-03-17T06:54:51.926Z,73.53
2023-03-17T06:57:18.379Z,72.97
2023-03-17T06:59:46.101Z,72.61
2023-03-17T07:02:12.656Z,72.25
2023-03-17T07:04:39.376Z,71.78
2023-03-17T07:07:05.975Z,70.42
2023-03-17T07:09:36.554Z,71.05
2023-03-17T07:12:05.951Z,70.61
2023-03-17T07:14:33.848Z,71.13
2023-03-17T07:17:00.422Z,70.45
2023-03-17T07:19:27.268Z,70.56
2023-03-17T07:21:55.815Z,70.62
2023-03-17T07:24:22.753Z,70.22
2023-03-17T07:26:49.233Z,70.79
2023-03-17T07:29:16.481Z,70.27
2023-03-17T07:31:44.182Z,70.33
2023-03-17T07:34:11.225Z,69.93
2023-03-17T07:36:40.162Z,69.04
2023-03-17T07:39:07.004Z,69.10
2023-03-17T07:41:33.472Z,69.86
2023-03-17T07:43:59.953Z,70.13
2023-03-17T07:46:26.579Z,68.81
2023-03-17T07:48:53.283Z,69.31
2023-03-17T07:51:22.169Z,69.94
2023-03-17T07:53:50.151Z,68.25
2023-03-17T07:56:17.672Z,69.09
2023-03-17T07:58:45.168Z,68.99
2023-03-17T08:01:12.212Z,68.30
2023-03-17T08:03:41.593Z,68.38
2023-03-17T08:06:09.403Z,68.45
2023-03-17T08:08:35.923Z,67.38
2023-03-17T08:11:03.713Z,66.73
2023-03-17T08:13:31.252Z,66.62
2023-03-17T08:15:57.744Z,66.79
2023-03-17T08:18:24.270Z,66.64
2023-03-17T08:20:51.414Z,66.75
2023-03-17T08:23:18.982Z,65.38
2023-03-17T08:25:45.737Z,67.22
2023-03-17T08:28:12.266Z,65.23
2023-03-17T08:30:39.221Z,65.76
2023-03-17T08:33:06.158Z,65.99
2023-03-17T08:35:32.997Z,64.47
2023-03-17T08:38:00.143Z,64.44
2023-03-17T08:40:26.620Z,63.15
2023-03-17T08:42:53.450Z,63.33
2023-03-17T08:45:20.035Z,63.47
2023-03-17T08:47:47.553Z,63.74
2023-03-17T08:50:19.516Z,63.69
2023-03-17T08:52:46.110Z,63.63
2023-03-17T08:55:13.465Z,63.42
2023-03-17T08:57:39.937Z,63.08
2023-03-17T09:00:10.939Z,64.23
2023-03-17T09:02:38.292Z,65.07
2023-03-17T09:05:06.830Z,63.95
2023-03-17T09:07:33.640Z,65.05
2023-03-17T09:10:00.577Z,64.67
2023-03-17T09:12:27.078Z,66.00
2023-03-17T09:14:54.594Z,65.24
2023-03-17T09:17:21.715Z,65.11
2023-03-17T09:19:48.502Z,64.88
2023-03-17T09:22:15.975Z,64.48
2023-03-17T09:24:42.450Z,64.23
2023-03-17T09:27:09.017Z,65.43
2023-03-17T09:29:35.533Z,63.99
2023-03-17T09:32:02.297Z,63.74
2023-03-17T09:34:28.764Z,64.69
2023-03-17T09:36:55.277Z,64.63
2023-03-17T09:39:23.078Z,64.48
2023-03-17T09:41:58.536Z,64.61
2023-03-17T09:44:43.246Z,65.01
2023-03-17T09:47:42.751Z,63.92
2023-03-17T09:50:12.915Z,64.00
2023-03-17T09:52:39.416Z,64.32
2023-03-17T09:55:08.486Z,64.51
2023-03-17T09:57:38.511Z,64.27
2023-03-17T10:00:16.534Z,63.46
2023-03-17T10:02:43.460Z,63.15
2023-03-17T10:05:12.934Z,62.77
2023-03-17T10:07:43.047Z,63.32
2023-03-17T10:10:33.209Z,63.06
2023-03-17T10:13:12.753Z,63.27
2023-03-17T10:16:01.562Z,64.12
2023-03-17T10:18:30.286Z,62.02
2023-03-17T10:21:01.839Z,62.39
2023-03-17T10:23:30.519Z,61.43
2023-03-17T10:25:59.758Z,62.12
2023-03-17T10:28:31.481Z,61.97
2023-03-17T10:31:19.029Z,61.37
2023-03-17T10:33:49.025Z,60.46
2023-03-17T10:36:16.612Z,60.87
2023-03-17T10:38:50.898Z,60.84
2023-03-17T10:41:17.423Z,59.44
2023-03-17T10:43:45.853Z,57.69
2023-03-17T10:46:24.332Z,59.86
2023-03-17T10:48:53.196Z,57.56
2023-03-17T10:51:31.625Z,56.67
2023-03-17T10:54:03.876Z,57.35
2023-03-17T10:56:33.930Z,57.31
2023-03-17T10:59:05.758Z,58.92
2023-03-17T11:01:39.919Z,57.85
2023-03-17T11:04:39.468Z,58.32
2023-03-17T11:07:19.582Z,58.05
2023-03-17T11:09:50.574Z,58.61
2023-03-17T11:12:29.852Z,57.95
2023-03-17T11:15:00.707Z,57.01
2023-03-17T11:17:37.967Z,57.73
2023-03-17T11:20:36.138Z,56.46
2023-03-17T11:23:26.438Z,58.25
2023-03-17T11:25:55.757Z,57.16
2023-03-17T11:28:24.974Z,57.18
2023-03-17T11:31:15.642Z,58.01
2023-03-17T11:34:09.233Z,57.00
2023-03-17T11:37:03.554Z,57.69
2023-03-17T11:39:44.777Z,57.32
2023-03-17T11:42:18.496Z,58.26
2023-03-17T11:45:02.583Z,56.15
2023-03-17T11:47:43.050Z,56.37
2023-03-17T11:50:22.070Z,56.56
2023-03-17T11:53:08.660Z,55.42
2023-03-17T11:55:47.779Z,56.28
2023-03-17T11:58:41.497Z,55.17
2023-03-17T12:01:09.181Z,57.28
2023-03-17T12:03:46.165Z,55.77
2023-03-17T12:06:23.421Z,53.87
2023-03-17T12:09:10.081Z,55.25
2023-03-17T12:11:39.107Z,54.31
2023-03-17T12:14:07.560Z,57.52
2023-03-17T12:17:10.968Z,55.78
2023-03-17T12:19:49.090Z,55.07
2023-03-17T12:22:28.444Z,54.86
2023-03-17T12:25:25.562Z,54.75
2023-03-17T12:28:13.697Z,54.60
2023-03-17T12:30:49.330Z,54.29
2023-03-17T12:33:27.826Z,54.73
2023-03-17T12:35:54.626Z,55.10
2023-03-17T12:38:43.233Z,54.93
2023-03-17T12:41:49.040Z,56.13
2023-03-17T12:44:40.311Z,55.65
2023-03-17T12:47:25.169Z,55.64
2023-03-17T12:49:56.926Z,55.28
2023-03-17T12:52:47.368Z,56.02
2023-03-17T12:55:15.898Z,57.43
2023-03-17T12:57:47.037Z,55.25
2023-03-17T13:00:25.245Z,56.65
2023-03-17T13:03:07.136Z,55.49
2023-03-17T13:05:34.215Z,55.91
2023-03-17T13:08:01.569Z,57.55
2023-03-17T13:10:43.755Z,56.46
2023-03-17T13:13:36.366Z,56.82
2023-03-17T13:16:04.444Z,55.27
2023-03-17T13:18:34.049Z,56.71
2023-03-17T13:21:00.860Z,55.85
2023-03-17T13:23:40.036Z,58.16
2023-03-17T13:26:06.906Z,57.34
2023-03-17T13:28:36.793Z,58.28
2023-03-17T13:31:31.447Z,58.19
2023-03-17T13:34:12.929Z,57.15
2023-03-17T13:37:01.343Z,58.11
2023-03-17T13:39:55.521Z,57.41
2023-03-17T13:42:29.446Z,55.28
2023-03-17T13:45:07.937Z,56.94
2023-03-17T13:47:36.564Z,56.20
2023-03-17T13:50:13.352Z,55.96
2023-03-17T13:52:39.756Z,57.40
2023-03-17T13:55:18.235Z,57.41
2023-03-17T13:58:12.151Z,57.70
2023-03-17T14:00:40.223Z,57.33
2023-03-17T14:03:17.484Z,57.57
2023-03-17T14:05:47.413Z,58.39
2023-03-17T14:08:32.562Z,57.64
2023-03-17T14:11:04.392Z,58.55
2023-03-17T14:13:42.122Z,57.95
2023-03-17T14:16:17.116Z,58.06
2023-03-17T14:18:49.652Z,58.08
2023-03-17T14:21:32.189Z,58.48
2023-03-17T14:24:02.613Z,58.71
2023-03-17T14:26:30.725Z,58.28
2023-03-17T14:29:01.105Z,58.28
2023-03-17T14:31:28.133Z,57.72
2023-03-17T14:33:55.946Z,57.98
2023-03-17T14:36:22.899Z,58.45
2023-03-17T14:38:51.183Z,58.50
2023-03-17T14:41:18.722Z,58.66
2023-03-17T14:43:45.302Z,59.62
2023-03-17T14:46:17.531Z,58.67
2023-03-17T14:48:46.493Z,58.13
2023-03-17T14:51:37.724Z,58.18
2023-03-17T14:54:33.710Z,58.02
2023-03-17T14:57:06.364Z,57.84
2023-03-17T14:59:36.435Z,58.19
2023-03-17T15:02:27.969Z,59.13
2023-03-17T15:05:19.324Z,57.89
2023-03-17T15:07:46.062Z,58.28
2023-03-17T15:10:20.405Z,59.08
2023-03-17T15:12:46.887Z,58.39
2023-03-17T15:15:24.110Z,58.94
2023-03-17T15:17:51.601Z,58.60
2023-03-17T15:20:18.120Z,59.77
2023-03-17T15:22:48.722Z,59.25
2023-03-17T15:25:37.714Z,59.25
2023-03-17T15:28:23.945Z,59.63
2023-03-17T15:30:51.594Z,58.86
2023-03-17T15:33:24.711Z,59.65
2023-03-17T15:35:51.553Z,59.87
2023-03-17T15:38:18.084Z,59.90
2023-03-17T15:40:44.632Z,59.66
2023-03-17T15:43:15.376Z,59.37
2023-03-17T15:45:43.731Z,58.99
2023-03-17T15:48:20.225Z,59.73
2023-03-17T15:50:47.203Z,59.74
2023-03-17T15:53:13.865Z,59.64
2023-03-17T15:55:40.367Z,60.09
2023-03-17T15:58:06.856Z,60.06
2023-03-17T16:00:34.015Z,59.81
2023-03-17T16:03:13.043Z,59.69
2023-03-17T16:05:39.609Z,59.49
2023-03-17T16:08:06.819Z,59.91
2023-03-17T16:10:33.780Z,61.20
2023-03-17T16:13:00.455Z,59.29
2023-03-17T16:15:31.643Z,59.45
2023-03-17T16:17:59.212Z,59.65
2023-03-17T16:20:34.273Z,59.64
2023-03-17T16:23:19.519Z,60.03
2023-03-17T16:25:46.411Z,59.95
2023-03-17T16:28:26.199Z,60.05
2023-03-17T16:30:54.262Z,60.11
2023-03-17T16:33:27.431Z,60.81
2023-03-17T16:35:55.518Z,60.79
2023-03-17T16:38:24.010Z,59.92
2023-03-17T16:40:51.937Z,61.05
2023-03-17T16:43:30.623Z,60.18
2023-03-17T16:46:01.039Z,60.63
2023-03-17T16:48:27.528Z,60.70
2023-03-17T16:50:54.034Z,60.01
2023-03-17T16:53:20.728Z,59.52
2023-03-17T16:55:47.226Z,60.11
2023-03-17T16:58:21.636Z,60.38
2023-03-17T17:00:48.599Z,60.17
2023-03-17T17:03:15.355Z,60.21
2023-03-17T17:05:42.130Z,59.63
2023-03-17T17:08:08.859Z,59.92
2023-03-17T17:10:35.513Z,60.04
2023-03-17T17:13:02.631Z,60.34
2023-03-17T17:15:29.242Z,60.51
2023-03-17T17:17:57.681Z,59.88
2023-03-17T17:20:31.064Z,60.51
2023-03-17T17:22:58.517Z,61.06
2023-03-17T17:25:25.466Z,60.95
2023-03-17T17:27:52.246Z,60.54
2023-03-17T17:30:20.216Z,61.13
2023-03-17T17:32:47.037Z,61.81
2023-03-17T17:35:14.251Z,61.78
2023-03-17T17:37:40.863Z,61.85
2023-03-17T17:40:08.460Z,61.81
2023-03-17T17:42:35.304Z,62.39
2023-03-17T17:45:01.786Z,62.96
2023-03-17T17:47:32.136Z,63.00
2023-03-17T17:49:58.933Z,63.03
2023-03-17T17:52:25.495Z,63.49
2023-03-17T17:54:52.260Z,63.42
2023-03-17T17:57:18.794Z,62.80
2023-03-17T17:59:45.552Z,63.11
2023-03-17T18:02:12.532Z,62.57
2023-03-17T18:04:39.134Z,62.41
2023-03-17T18:07:05.689Z,62.89
2023-03-17T18:09:32.522Z,62.19
2023-03-17T18:11:59.048Z,62.89
2023-03-17T18:14:25.697Z,63.26
2023-03-17T18:16:52.249Z,62.49
2023-03-17T18:19:18.799Z,62.64
2023-03-17T18:21:46.443Z,62.05
2023-03-17T18:24:13.386Z,62.48
2023-03-17T18:26:39.855Z,62.96
2023-03-17T18:29:06.821Z,62.87
2023-03-17T18:31:44.419Z,63.12
2023-03-17T18:34:24.679Z,62.40
2023-03-17T18:36:51.134Z,63.10
2023-03-17T18:39:17.812Z,62.66
2023-03-17T18:41:44.321Z,62.26
2023-03-17T18:44:11.051Z,61.81
2023-03-17T18:46:37.666Z,61.75
2023-03-17T18:49:05.250Z,62.80
2023-03-17T18:51:31.881Z,63.32
2023-03-17T18:53:58.359Z,63.31
2023-03-17T18:56:28.940Z,64.88
2023-03-17T18:58:56.288Z,64.58
2023-03-17T19:01:22.879Z,65.54
2023-03-17T19:03:49.687Z,66.15
2023-03-17T19:06:17.902Z,69.00
2023-03-17T19:08:44.491Z,68.83
2023-03-17T19:11:11.979Z,69.77
2023-03-17T19:13:38.515Z,69.13
2023-03-17T19:16:05.457Z,68.13
2023-03-17T19:18:31.932Z,71.05
2023-03-17T19:20:58.440Z,69.63
2023-03-17T19:23:24.959Z,69.44
2023-03-17T19:25:51.510Z,67.27
2023-03-17T19:28:18.379Z,66.10
2023-03-17T19:30:45.858Z,66.01
2023-03-17T19:33:13.187Z,65.93
2023-03-17T19:35:40.177Z,65.68
2023-03-17T19:38:08.190Z,65.59
2023-03-17T19:40:36.985Z,65.40
2023-03-17T19:43:04.393Z,65.15
2023-03-17T19:45:31.366Z,64.77
2023-03-17T19:47:57.999Z,64.94
2023-03-17T19:50:24.763Z,65.13
2023-03-17T19:52:53.189Z,65.54
2023-03-17T19:55:20.748Z,65.83
2023-03-17T19:57:47.783Z,65.49
2023-03-17T20:00:14.640Z,66.13
2023-03-17T20:02:41.223Z,66.67
2023-03-17T20:05:08.169Z,67.20
2023-03-17T20:07:34.988Z,65.64
2023-03-17T20:10:01.892Z,65.32
2023-03-17T20:12:30.240Z,65.54
2023-03-17T20:14:56.718Z,65.79
2023-03-17T20:17:23.189Z,64.70
2023-03-17T20:19:49.669Z,64.87
2023-03-17T20:22:16.214Z,64.54
2023-03-17T20:24:43.437Z,64.41
2023-03-17T20:27:11.220Z,64.70
2023-03-17T20:29:38.456Z,64.53
2023-03-17T20:32:04.981Z,64.32
2023-03-17T20:34:31.868Z,64.26
2023-03-17T20:36:58.397Z,64.93
2023-03-17T20:39:24.943Z,64.91
2023-03-17T20:41:51.569Z,64.00
2023-03-17T20:44:18.095Z,64.47
2023-03-17T20:46:44.677Z,64.05
2023-03-17T20:49:11.643Z,64.06
2023-03-17T20:51:38.153Z,63.76
2023-03-17T20:54:04.664Z,64.16
2023-03-17T20:56:33.633Z,64.20
2023-03-17T20:59:04.781Z,64.63
2023-03-17T21:01:33.183Z,65.25
2023-03-17T21:03:59.845Z,64.91
2023-03-17T21:06:28.267Z,65.56
2023-03-17T21:08:55.265Z,65.30
2023-03-17T21:11:23.158Z,65.03
2023-03-17T21:13:49.913Z,65.44
2023-03-17T21:16:21.785Z,65.16
2023-03-17T21:18:48.358Z,65.50
2023-03-17T21:21:15.058Z,65.44
2023-03-17T21:23:41.969Z,65.76
2023-03-17T21:26:09.182Z,66.30
2023-03-17T21:28:36.367Z,65.97
2023-03-17T21:31:02.922Z,66.22
2023-03-17T21:33:29.403Z,66.98
2023-03-17T21:35:58.613Z,67.16
2023-03-17T21:38:27.338Z,67.42
2023-03-17T21:40:57.536Z,67.92
2023-03-17T21:43:24.279Z,67.92
2023-03-17T21:45:51.045Z,68.09
2023-03-17T21:48:17.561Z,68.17
2023-03-17T21:50:44.113Z,68.44
2023-03-17T21:53:13.741Z,69.19
2023-03-17T21:55:41.332Z,69.51
2023-03-17T21:58:08.151Z,69.56
2023-03-17T22:00:44.655Z,69.59
2023-03-17T22:03:11.870Z,69.49
2023-03-17T22:05:38.429Z,70.50
2023-03-17T22:08:05.428Z,70.36
2023-03-17T22:10:32.152Z,70.33
2023-03-17T22:12:58.834Z,70.93
2023-03-17T22:15:25.326Z,70.83
2023-03-17T22:17:53.108Z,70.96
2023-03-17T22:20:20.307Z,70.93
2023-03-17T22:22:46.783Z,70.67
2023-03-17T22:25:13.306Z,71.86
2023-03-17T22:27:40.076Z,71.40
2023-03-17T22:30:06.818Z,73.35
2023-03-17T22:32:33.350Z,73.49
2023-03-17T22:35:00.149Z,75.32
2023-03-17T22:37:27.828Z,74.46
2023-03-17T22:39:54.340Z,77.69
2023-03-17T22:42:21.031Z,78.24
2023-03-17T22:44:47.505Z,80.30
2023-03-17T22:47:13.960Z,81.11
2023-03-17T22:49:40.907Z,82.75
2023-03-17T22:52:08.602Z,82.52
2023-03-17T22:54:35.093Z,84.89
2023-03-17T22:57:01.581Z,88.63
2023-03-17T22:59:28.051Z,87.18
2023-03-17T23:01:54.517Z,88.32
2023-03-17T23:04:21.282Z,90.21
2023-03-17T23:06:48.789Z,91.25
2023-03-17T23:09:15.534Z,94.58
2023-03-17T23:11:42.736Z,97.56
2023-03-17T23:14:09.216Z,97.11
2023-03-17T23:16:37.602Z,96.72
2023-03-17T23:19:04.759Z,100.00
2023-03-17T23:21:33.854Z,100.00
2023-03-17T23:24:00.613Z,100.00
2023-03-17T23:26:27.460Z,100.00
2023-03-17T23:28:53.964Z,100.00
2023-03-17T23:31:22.302Z,96.19
2023-03-17T23:33:49.145Z,97.11
2023-03-17T23:36:16.243Z,98.01
2023-03-17T23:38:42.881Z,100.00
2023-03-17T23:41:09.724Z,100.00
2023-03-17T23:43:37.363Z,97.20
2023-03-17T23:46:04.737Z,95.67
2023-03-17T23:48:31.279Z,97.22
2023-03-17T23:50:57.785Z,99.46
2023-03-17T23:53:24.596Z,100.00
2023-03-17T23:55:51.418Z,100.00
2023-03-17T23:58:18.082Z,100.00
